Time;durP1;ratioP1;P1;durP2;ratioP2;P2;SDS_P1;SDS_P2;PMS_P1;PMS_P2;Temp;Humidity;BMP_temperature;BMP_pressure;BME280_temperature;BME280_humidity;BME280_pressure;Samples;Min_cycle;Max_cycle;Signal;HPM_P1;HPM_P2
2023/12/03 00:00:55;;;;;;;26.13;16.87;;;;;;;9.20;100.00;100532.34;2088442;28;20183;-65
2023/12/03 00:01:56;;;;;;;28.83;17.87;;;;;;;9.39;100.00;100542.63;2088511;28;20519;-65
2023/12/03 00:02:57;;;;;;;26.03;16.63;;;;;;;9.35;100.00;100558.53;2095047;28;20191;-65
2023/12/03 00:03:57;;;;;;;26.70;16.17;;;;;;;8.60;100.00;100436.78;2096801;28;20186;-65
2023/12/03 00:04:58;;;;;;;25.10;16.63;;;;;;;8.54;100.00;100421.91;2096529;28;20190;-65
2023/12/03 00:05:59;;;;;;;25.07;17.03;;;;;;;8.96;100.00;100517.81;2096916;28;20184;-65
2023/12/03 00:06:59;;;;;;;26.10;16.83;;;;;;;9.18;100.00;100565.94;2096986;28;20429;-65
2023/12/03 00:08:01;;;;;;;25.57;16.50;;;;;;;8.95;100.00;100523.75;2096950;28;20183;-65
2023/12/03 00:09:02;;;;;;;28.83;17.10;;;;;;;9.04;100.00;100554.38;2096253;28;20174;-65
2023/12/03 00:10:03;;;;;;;25.87;17.17;;;;;;;9.02;100.00;100551.28;2096967;28;20437;-65
2023/12/03 00:11:03;;;;;;;28.93;16.90;;;;;;;8.95;100.00;100545.88;2090522;28;20548;-65
2023/12/03 00:12:05;;;;;;;26.83;17.43;;;;;;;8.99;100.00;100539.09;2098098;28;20185;-65
2023/12/03 00:13:06;;;;;;;28.60;16.87;;;;;;;9.10;100.00;100547.16;2098011;28;20278;-65
2023/12/03 00:14:07;;;;;;;26.03;15.80;;;;;;;8.81;100.00;100513.75;2093423;28;20540;-65
2023/12/03 00:15:08;;;;;;;23.53;15.53;;;;;;;8.97;100.00;100565.59;2104490;28;20259;-65
2023/12/03 00:16:09;;;;;;;22.83;15.17;;;;;;;8.44;100.00;100505.72;2090459;28;20494;-65
2023/12/03 00:17:09;;;;;;;27.77;15.80;;;;;;;8.81;100.00;100571.78;2090368;28;20184;-65
2023/12/03 00:18:10;;;;;;;29.63;16.53;;;;;;;8.86;100.00;100570.53;2090134;28;20550;-65
2023/12/03 00:19:10;;;;;;;25.77;15.67;;;;;;;8.89;100.00;100570.47;2101906;28;20271;-65
2023/12/03 00:20:11;;;;;;;23.60;15.30;;;;;;;8.91;100.00;100568.03;2094636;28;20192;-65
2023/12/03 00:21:12;;;;;;;25.30;15.53;;;;;;;8.55;100.00;100511.84;2095932;28;20682;-65
2023/12/03 00:22:12;;;;;;;25.20;16.27;;;;;;;8.80;100.00;100550.09;2104701;28;20185;-65
2023/12/03 00:23:13;;;;;;;26.90;15.97;;;;;;;8.90;100.00;100568.47;2098235;28;20561;-65
2023/12/03 00:24:13;;;;;;;23.17;15.63;;;;;;;8.75;100.00;100551.34;2106441;28;20220;-65
2023/12/03 00:25:14;;;;;;;25.73;15.67;;;;;;;8.83;100.00;100563.06;2098888;28;20202;-65
2023/12/03 00:26:14;;;;;;;23.50;14.27;;;;;;;8.92;100.00;100574.34;2092242;28;20251;-65
2023/12/03 00:27:15;;;;;;;26.53;15.37;;;;;;;8.86;100.00;100565.00;2089712;28;20256;-65
2023/12/03 00:28:15;;;;;;;23.60;15.17;;;;;;;8.89;100.00;100573.22;2097852;28;20543;-65
2023/12/03 00:29:16;;;;;;;26.83;15.93;;;;;;;8.35;100.00;100490.91;2103472;28;20230;-65
2023/12/03 00:30:16;;;;;;;25.77;16.23;;;;;;;8.77;100.00;100556.47;2096554;28;20168;-65
2023/12/03 00:31:17;;;;;;;26.07;16.60;;;;;;;8.78;100.00;100566.31;2094349;28;20190;-65
2023/12/03 00:32:17;;;;;;;26.23;16.30;;;;;;;8.83;100.00;100588.72;2098527;28;20215;-65
2023/12/03 00:33:18;;;;;;;26.23;15.50;;;;;;;8.34;100.00;100514.19;2091932;28;20221;-65
2023/12/03 00:34:18;;;;;;;25.17;16.27;;;;;;;8.85;100.00;100600.13;2094607;28;20231;-65
2023/12/03 00:35:19;;;;;;;29.80;15.93;;;;;;;8.83;100.00;100605.31;2098072;28;20207;-65
2023/12/03 00:36:19;;;;;;;28.33;16.07;;;;;;;8.69;100.00;100591.72;2095903;28;20180;-65
2023/12/03 00:37:20;;;;;;;30.27;16.07;;;;;;;8.62;100.00;100582.78;2089294;28;20187;-65
2023/12/03 00:38:21;;;;;;;24.90;15.73;;;;;;;8.86;100.00;100617.50;2090036;28;20175;-65
2023/12/03 00:39:22;;;;;;;28.00;16.97;;;;;;;8.82;100.00;100614.00;2097655;28;20186;-65
2023/12/03 00:40:22;;;;;;;27.40;16.67;;;;;;;8.92;100.00;100627.63;2097663;28;20499;-65
2023/12/03 00:41:23;;;;;;;24.87;16.13;;;;;;;8.98;100.00;100623.19;2097857;28;20187;-65
2023/12/03 00:42:24;;;;;;;31.80;16.63;;;;;;;8.92;100.00;100630.41;2098152;28;20181;-65
2023/12/03 00:43:24;;;;;;;29.07;16.70;;;;;;;8.95;100.00;100621.28;2094435;28;20574;-65
2023/12/03 00:44:25;;;;;;;28.57;16.57;;;;;;;8.93;100.00;100614.59;2090141;28;20187;-65
2023/12/03 00:45:26;;;;;;;27.70;17.10;;;;;;;8.99;100.00;100623.97;2097531;28;20254;-65
2023/12/03 00:46:26;;;;;;;28.37;17.30;;;;;;;8.99;100.00;100627.53;2098437;28;20262;-65
2023/12/03 00:47:27;;;;;;;25.53;16.07;;;;;;;8.64;100.00;100574.84;2106181;28;20180;-65
2023/12/03 00:48:27;;;;;;;23.77;16.50;;;;;;;8.81;100.00;100620.75;2093273;28;20200;-65
2023/12/03 00:49:28;;;;;;;25.67;16.57;;;;;;;7.90;100.00;100495.91;2100450;28;20197;-65
2023/12/03 00:50:29;;;;;;;26.87;16.73;;;;;;;8.59;100.00;100594.66;2098352;28;20195;-65
2023/12/03 00:51:29;;;;;;;28.20;17.40;;;;;;;8.87;100.00;100630.88;2094900;28;20762;-65
2023/12/03 00:52:30;;;;;;;27.00;16.40;;;;;;;8.77;100.00;100609.72;2103585;28;20188;-65
2023/12/03 00:53:31;;;;;;;24.93;16.10;;;;;;;8.41;100.00;100549.97;2089734;28;20262;-65
2023/12/03 00:54:31;;;;;;;29.07;16.97;;;;;;;8.92;100.00;100635.91;2089357;28;20418;-65
2023/12/03 00:55:32;;;;;;;30.07;17.60;;;;;;;8.95;100.00;100648.91;2089900;28;20186;-65
2023/12/03 00:56:32;;;;;;;31.80;18.07;;;;;;;8.99;100.00;100646.88;2095860;28;20208;-65
2023/12/03 00:57:34;;;;;;;26.57;17.03;;;;;;;9.00;100.00;100653.97;2093397;28;20684;-65
2023/12/03 00:58:34;;;;;;;26.93;16.83;;;;;;;9.04;100.00;100653.91;2093429;28;20607;-65
2023/12/03 00:59:35;;;;;;;29.43;17.53;;;;;;;9.06;100.00;100654.25;2095812;28;20486;-65
2023/12/03 01:00:35;;;;;;;28.53;17.63;;;;;;;9.07;100.00;100651.06;2089410;28;20220;-65
2023/12/03 01:01:36;;;;;;;26.93;17.07;;;;;;;9.09;100.00;100656.19;2089878;28;20187;-65
2023/12/03 01:02:37;;;;;;;24.87;16.03;;;;;;;9.11;100.00;100662.84;2089839;28;20246;-65
2023/12/03 01:03:37;;;;;;;26.33;16.13;;;;;;;9.08;100.00;100655.38;2096562;28;20191;-65
2023/12/03 01:04:38;;;;;;;22.13;15.90;;;;;;;9.11;100.00;100656.53;2097530;28;20190;-65
2023/12/03 01:05:38;;;;;;;24.50;15.73;;;;;;;9.06;100.00;100646.75;2093529;28;20630;-65
2023/12/03 01:06:40;;;;;;;22.60;15.13;;;;;;;9.11;100.00;100651.78;2092698;28;20676;-65
2023/12/03 01:07:40;;;;;;;21.23;14.60;;;;;;;9.18;100.00;100667.47;2096255;28;20176;-65
2023/12/03 01:08:41;;;;;;;25.40;16.33;;;;;;;9.26;100.00;100675.22;2090146;28;20425;-65
2023/12/03 01:09:41;;;;;;;26.47;15.10;;;;;;;9.19;100.00;100664.31;2098202;28;20199;-65
2023/12/03 01:10:42;;;;;;;24.10;15.57;;;;;;;9.30;100.00;100678.72;2090073;28;20191;-65
2023/12/03 01:11:42;;;;;;;26.23;15.73;;;;;;;9.08;100.00;100646.34;2089768;28;20181;-65
2023/12/03 01:12:43;;;;;;;30.63;16.57;;;;;;;9.31;100.00;100676.72;2089763;28;20559;-65
2023/12/03 01:13:43;;;;;;;19.67;12.37;;;;;;;9.24;100.00;100663.81;2089632;28;20568;-65
2023/12/03 01:14:44;;;;;;;29.83;17.90;;;;;;;9.33;100.00;100677.09;2088986;28;20649;-65
2023/12/03 01:15:45;;;;;;;27.83;17.93;;;;;;;9.10;100.00;100632.84;2089706;28;20180;-65
2023/12/03 01:16:46;;;;;;;24.57;16.00;;;;;;;9.41;100.00;100690.38;2089922;28;20183;-65
2023/12/03 01:17:47;;;;;;;23.63;15.47;;;;;;;9.12;100.00;100636.75;2089980;28;20191;-65
2023/12/03 01:18:47;;;;;;;17.57;10.50;;;;;;;9.41;100.00;100675.75;2089696;28;20415;-65
2023/12/03 01:19:47;;;;;;;27.60;16.20;;;;;;;9.47;100.00;100679.56;2094037;28;20192;-65
2023/12/03 01:20:48;;;;;;;26.03;16.70;;;;;;;9.16;100.00;100640.25;2091612;28;20207;-65
2023/12/03 01:21:49;;;;;;;18.83;11.23;;;;;;;9.51;100.00;100681.09;2091733;28;20205;-65
2023/12/03 01:22:49;;;;;;;23.53;14.57;;;;;;;9.25;100.00;100640.50;2096699;28;20175;-65
2023/12/03 01:23:50;;;;;;;25.60;15.67;;;;;;;9.47;100.00;100666.53;2096977;28;20649;-65
2023/12/03 01:24:50;;;;;;;23.10;13.17;;;;;;;9.55;100.00;100683.78;2097270;28;20175;-65
2023/12/03 01:25:51;;;;;;;19.43;11.77;;;;;;;9.60;100.00;100678.56;2090229;28;20219;-65
2023/12/03 01:26:51;;;;;;;19.20;12.17;;;;;;;9.61;100.00;100680.13;2096042;28;20191;-65
2023/12/03 01:27:52;;;;;;;23.13;14.80;;;;;;;9.17;100.00;100605.09;2092693;28;20216;-65
2023/12/03 01:28:52;;;;;;;15.63;8.23;;;;;;;9.58;100.00;100656.06;2089715;28;20192;-65
2023/12/03 01:29:53;;;;;;;16.80;10.90;;;;;;;9.79;100.00;100677.00;2089547;28;20230;-65
2023/12/03 01:30:53;;;;;;;14.00;9.17;;;;;;;9.81;100.00;100682.88;2089189;28;20750;-65
2023/12/03 01:31:54;;;;;;;16.67;8.73;;;;;;;9.66;100.00;100651.94;2089736;28;20638;-65
2023/12/03 01:32:54;;;;;;;13.43;7.63;;;;;;;10.00;100.00;100680.09;2088846;28;20294;-65
2023/12/03 01:33:55;;;;;;;12.43;7.80;;;;;;;10.16;100.00;100694.06;2095758;28;20684;-65
2023/12/03 01:34:56;;;;;;;14.57;8.70;;;;;;;9.77;100.00;100627.63;2091279;28;20216;-65
2023/12/03 01:35:56;;;;;;;13.63;8.23;;;;;;;10.16;100.00;100684.97;2089484;28;20207;-65
2023/12/03 01:36:57;;;;;;;10.80;7.90;;;;;;;10.22;100.00;100697.09;2092663;28;20206;-65
2023/12/03 01:37:58;;;;;;;13.80;7.37;;;;;;;9.96;100.00;100662.00;2097818;28;20172;-65
2023/12/03 01:38:58;;;;;;;12.93;7.67;;;;;;;10.23;100.00;100695.88;2097332;28;20569;-65
2023/12/03 01:39:59;;;;;;;16.27;8.63;;;;;;;10.12;100.00;100687.81;2091378;28;20173;-65
2023/12/03 01:40:59;;;;;;;13.30;8.40;;;;;;;10.15;100.00;100706.31;2089862;28;20206;-65
2023/12/03 01:42:00;;;;;;;14.17;8.70;;;;;;;10.21;100.00;100701.88;2089329;28;20277;-65
2023/12/03 01:43:00;;;;;;;15.53;9.67;;;;;;;10.26;100.00;100708.88;2097253;28;20200;-65
2023/12/03 01:44:01;;;;;;;17.77;11.43;;;;;;;9.70;100.00;100630.53;2097416;28;20184;-65
2023/12/03 01:45:02;;;;;;;16.90;10.20;;;;;;;10.30;100.00;100715.13;2095047;28;20592;-65
2023/12/03 01:46:02;;;;;;;11.67;8.13;;;;;;;10.33;100.00;100717.81;2090705;28;20669;-65
2023/12/03 01:47:03;;;;;;;14.23;8.37;;;;;;;10.35;100.00;100718.16;2097920;28;20203;-65
2023/12/03 01:48:04;;;;;;;16.17;9.97;;;;;;;10.40;100.00;100725.22;2089720;28;20256;-65
2023/12/03 01:49:06;;;;;;;17.10;10.90;;;;;;;10.42;100.00;100731.88;2088726;28;20462;-65
2023/12/03 01:50:08;;;;;;;16.00;10.83;;;;;;;10.44;100.00;100729.44;2095429;28;20450;-65
2023/12/03 01:51:09;;;;;;;17.13;11.33;;;;;;;9.83;100.00;100634.19;2092523;28;20268;-65
2023/12/03 01:52:11;;;;;;;17.37;11.77;;;;;;;10.54;100.00;100733.97;2093170;28;20644;-65
2023/12/03 01:53:12;;;;;;;18.63;11.13;;;;;;;10.56;100.00;100731.56;2097492;28;20432;-65
2023/12/03 01:54:13;;;;;;;17.30;11.23;;;;;;;10.53;100.00;100726.88;2095747;28;20951;-65
2023/12/03 01:55:19;;;;;;;16.57;10.73;;;;;;;10.59;100.00;100733.47;2089187;28;20954;-65
2023/12/03 01:56:20;;;;;;;16.93;11.63;;;;;;;10.60;100.00;100739.81;2089674;28;20164;-65
2023/12/03 01:57:20;;;;;;;17.80;11.00;;;;;;;10.62;100.00;100743.72;2089338;28;20509;-65
2023/12/03 01:58:21;;;;;;;18.63;11.23;;;;;;;10.63;100.00;100742.50;2096338;28;20680;-65
2023/12/03 01:59:23;;;;;;;16.83;12.40;;;;;;;10.00;100.00;100660.72;2097574;28;20186;-65
2023/12/03 02:00:23;;;;;;;20.70;12.27;;;;;;;10.10;100.00;100689.44;2093355;28;20236;-65
2023/12/03 02:01:24;;;;;;;19.10;11.87;;;;;;;10.23;100.00;100738.22;2088858;28;20449;-65
2023/12/03 02:02:26;;;;;;;19.53;12.93;;;;;;;9.91;100.00;100721.44;2091029;28;20215;-66
2023/12/03 02:03:28;;;;;;;21.77;12.30;;;;;;;9.86;100.00;100733.00;2096812;28;20179;-66
2023/12/03 02:04:28;;;;;;;17.07;9.90;;;;;;;9.71;100.00;100737.25;2097217;28;20497;-65
2023/12/03 02:05:29;;;;;;;16.13;8.77;;;;;;;9.63;100.00;100740.56;2089694;28;20446;-65
2023/12/03 02:06:29;;;;;;;15.67;8.90;;;;;;;9.65;100.00;100740.91;2089200;28;20650;-65
2023/12/03 02:07:30;;;;;;;16.07;8.57;;;;;;;9.67;100.00;100736.50;2094905;28;20193;-65
2023/12/03 02:08:31;;;;;;;11.27;7.30;;;;;;;9.69;100.00;100736.09;2097634;28;20676;-65
2023/12/03 02:09:32;;;;;;;12.57;7.87;;;;;;;8.66;100.00;100592.56;2094515;28;20642;-65
2023/12/03 02:10:33;;;;;;;16.60;8.33;;;;;;;8.48;100.00;100566.41;2088184;28;20998;-65
2023/12/03 02:11:34;;;;;;;12.37;7.57;;;;;;;9.56;100.00;100744.22;2089226;28;20210;-65
2023/12/03 02:12:35;;;;;;;15.07;6.70;;;;;;;9.69;100.00;100752.69;2097752;28;20425;-65
2023/12/03 02:13:38;;;;;;;13.57;7.70;;;;;;;9.67;100.00;100755.88;2097346;28;20938;-65
2023/12/03 02:14:38;;;;;;;12.17;6.80;;;;;;;9.76;100.00;100769.16;2089997;28;20199;-65
2023/12/03 02:15:39;;;;;;;10.43;6.53;;;;;;;9.76;100.00;100766.41;2089168;28;20474;-65
2023/12/03 02:16:47;;;;;;;14.03;7.70;;;;;;;9.59;100.00;100740.59;2089304;28;20255;-65
2023/12/03 02:17:48;;;;;;;11.33;7.20;;;;;;;9.39;100.00;100708.59;2088972;28;20211;-65
2023/12/03 02:18:49;;;;;;;11.73;6.40;;;;;;;9.89;100.00;100776.44;2092111;28;21038;-65
2023/12/03 02:19:49;;;;;;;16.77;9.67;;;;;;;9.58;100.00;100747.34;2095669;28;20843;-65
2023/12/03 02:20:50;;;;;;;14.63;7.27;;;;;;;9.92;100.00;100777.56;2089267;28;20458;-65
2023/12/03 02:21:50;;;;;;;13.07;7.93;;;;;;;9.92;100.00;100783.91;2097610;28;20571;-65
2023/12/03 02:23:01;;;;;;;11.77;7.40;;;;;;;9.95;100.00;100796.09;2097414;28;20183;-65
2023/12/03 02:24:01;;;;;;;9.47;5.80;;;;;;;10.01;100.00;100789.66;2089670;28;20188;-65
2023/12/03 02:25:02;;;;;;;10.13;5.10;;;;;;;10.11;100.00;100793.47;2095250;28;20583;-65
2023/12/03 02:26:02;;;;;;;9.57;4.53;;;;;;;9.82;100.00;100731.50;2092499;28;20209;-65
2023/12/03 02:27:03;;;;;;;8.13;5.50;;;;;;;10.17;100.00;100789.78;2089008;28;20192;-65
2023/12/03 02:28:04;;;;;;;13.37;5.10;;;;;;;10.13;100.00;100768.88;2091581;28;20214;-65
2023/12/03 02:29:04;;;;;;;8.77;4.73;;;;;;;10.27;100.00;100790.75;2097379;28;20179;-65
2023/12/03 02:30:05;;;;;;;8.07;5.57;;;;;;;10.18;100.00;100774.72;2097738;28;20190;-65
2023/12/03 02:31:06;;;;;;;9.57;6.17;;;;;;;10.30;100.00;100790.69;2088901;28;20191;-65
2023/12/03 02:32:07;;;;;;;11.10;5.93;;;;;;;10.37;100.00;100785.03;2089288;28;20489;-65
2023/12/03 02:33:07;;;;;;;10.03;6.50;;;;;;;9.74;100.00;100694.88;2100916;28;20285;-65
2023/12/03 02:34:09;;;;;;;13.20;7.40;;;;;;;10.34;100.00;100793.38;2100445;28;20336;-65
2023/12/03 02:35:10;;;;;;;14.27;6.93;;;;;;;10.37;100.00;100787.78;2093726;28;20262;-65
2023/12/03 02:36:10;;;;;;;12.80;6.40;;;;;;;10.46;100.00;100789.97;2088961;28;20414;-65
2023/12/03 02:37:11;;;;;;;9.93;6.33;;;;;;;10.46;100.00;100801.84;2088660;28;20191;-65
2023/12/03 02:38:11;;;;;;;12.43;6.37;;;;;;;8.96;100.00;100564.78;2089274;28;20212;-65
2023/12/03 02:39:12;;;;;;;10.00;5.57;;;;;;;9.89;100.00;100715.53;2089178;28;20525;-65
2023/12/03 02:40:12;;;;;;;8.27;5.07;;;;;;;10.60;100.00;100814.63;2092415;28;20199;-65
2023/12/03 02:41:13;;;;;;;6.57;3.90;;;;;;;10.60;100.00;100818.16;2096981;28;20297;-65
2023/12/03 02:42:13;;;;;;;7.30;3.93;;;;;;;10.65;100.00;100823.22;2097155;28;20202;-65
2023/12/03 02:43:14;;;;;;;6.43;3.73;;;;;;;10.68;100.00;100832.66;2093477;28;20242;-65
2023/12/03 02:44:14;;;;;;;6.57;3.47;;;;;;;10.70;100.00;100839.34;2087987;28;20187;-65
2023/12/03 02:45:15;;;;;;;7.77;4.33;;;;;;;10.72;100.00;100844.47;2089054;28;20168;-65
2023/12/03 02:46:15;;;;;;;6.70;4.17;;;;;;;10.17;100.00;100789.78;2088827;28;20527;-65
2023/12/03 02:47:16;;;;;;;6.20;3.67;;;;;;;10.66;100.00;100860.03;2089023;28;20200;-65
2023/12/03 02:48:16;;;;;;;7.30;3.80;;;;;;;10.73;100.00;100860.66;2095365;28;20188;-65
2023/12/03 02:49:17;;;;;;;6.00;3.70;;;;;;;10.74;100.00;100859.47;2092226;28;20223;-65
2023/12/03 02:50:17;;;;;;;7.53;3.83;;;;;;;10.77;100.00;100864.13;2092738;28;20201;-65
2023/12/03 02:51:18;;;;;;;4.10;2.53;;;;;;;10.63;100.00;100830.41;2094277;28;20188;-65
2023/12/03 02:52:18;;;;;;;4.43;2.30;;;;;;;10.84;100.00;100866.78;2089033;28;20271;-65
2023/12/03 02:53:19;;;;;;;4.43;2.10;;;;;;;10.83;100.00;100867.19;2089058;28;20211;-64
2023/12/03 02:54:19;;;;;;;3.20;1.80;;;;;;;10.55;100.00;100834.53;2087758;28;20269;-65
2023/12/03 02:55:20;;;;;;;4.43;1.70;;;;;;;10.80;100.00;100871.59;2088262;28;20689;-64
2023/12/03 02:56:20;;;;;;;3.07;1.80;;;;;;;10.76;100.00;100876.44;2094513;28;20190;-65
2023/12/03 02:57:21;;;;;;;2.90;1.63;;;;;;;10.77;100.00;100861.34;2097224;28;20248;-65
2023/12/03 02:58:21;;;;;;;3.03;1.70;;;;;;;10.63;100.00;100856.13;2097159;28;20195;-65
2023/12/03 02:59:22;;;;;;;3.03;1.77;;;;;;;10.35;100.00;100812.34;2097086;28;20182;-65
2023/12/03 03:00:22;;;;;;;1.67;1.30;;;;;;;10.75;100.00;100858.25;2096686;28;20183;-65
2023/12/03 03:01:23;;;;;;;1.53;1.17;;;;;;;10.65;100.00;100855.72;2096713;28;20176;-65
2023/12/03 03:02:23;;;;;;;2.07;1.43;;;;;;;10.69;100.00;100853.63;2089700;28;20192;-65
2023/12/03 03:03:24;;;;;;;2.33;1.17;;;;;;;10.29;100.00;100814.06;2088661;28;20192;-64
2023/12/03 03:04:24;;;;;;;1.83;1.27;;;;;;;10.65;100.00;100875.88;2088411;28;20188;-64
2023/12/03 03:05:25;;;;;;;2.20;1.10;;;;;;;10.68;100.00;100874.25;2088916;28;20192;-65
2023/12/03 03:06:25;;;;;;;1.63;1.10;;;;;;;10.69;100.00;100887.69;2088934;28;20186;-65
2023/12/03 03:07:27;;;;;;;2.17;1.40;;;;;;;10.70;100.00;100883.69;2088837;28;20231;-65
2023/12/03 03:08:27;;;;;;;3.83;1.47;;;;;;;10.68;100.00;100894.44;2088806;28;20182;-65
2023/12/03 03:09:28;;;;;;;2.33;1.30;;;;;;;10.62;100.00;100890.59;2097391;28;20436;-65
2023/12/03 03:10:28;;;;;;;2.03;1.47;;;;;;;10.64;100.00;100896.50;2096921;28;20188;-65
2023/12/03 03:11:29;;;;;;;2.30;1.33;;;;;;;10.64;100.00;100898.47;2091057;28;20250;-65
2023/12/03 03:12:29;;;;;;;1.87;1.20;;;;;;;10.60;100.00;100897.78;2088898;28;20199;-65
2023/12/03 03:13:30;;;;;;;2.80;1.33;;;;;;;10.58;100.00;100894.63;2092033;28;20705;-65
2023/12/03 03:14:30;;;;;;;1.93;1.20;;;;;;;10.59;100.00;100896.97;2094388;28;20190;-65
2023/12/03 03:15:31;;;;;;;2.33;1.20;;;;;;;10.55;100.00;100899.03;2088228;28;20204;-65
2023/12/03 03:16:31;;;;;;;2.60;1.03;;;;;;;10.49;100.00;100900.75;2089112;28;20767;-64
2023/12/03 03:17:32;;;;;;;2.70;1.50;;;;;;;10.50;100.00;100893.22;2095945;28;20184;-65
2023/12/03 03:18:34;;;;;;;3.83;1.47;;;;;;;10.49;100.00;100897.97;2089951;28;20680;-65
2023/12/03 03:19:35;;;;;;;3.00;1.13;;;;;;;10.44;100.00;100892.91;2091439;28;20199;-65
2023/12/03 03:20:36;;;;;;;2.17;1.50;;;;;;;10.09;100.00;100860.34;2092425;28;20443;-65
2023/12/03 03:21:40;;;;;;;2.67;1.50;;;;;;;10.38;100.00;100914.00;2088794;28;20201;-65
2023/12/03 03:22:40;;;;;;;2.27;1.50;;;;;;;10.33;100.00;100908.16;2090874;28;20549;-65
2023/12/03 03:23:41;;;;;;;2.07;1.20;;;;;;;10.33;100.00;100916.47;2096869;28;20414;-65
2023/12/03 03:24:41;;;;;;;4.73;2.00;;;;;;;10.32;100.00;100914.91;2096771;28;20207;-65
2023/12/03 03:25:42;;;;;;;3.20;1.50;;;;;;;10.31;100.00;100908.59;2089218;28;20200;-65
2023/12/03 03:26:42;;;;;;;3.23;1.53;;;;;;;10.27;100.00;100912.63;2095730;28;20256;-65
2023/12/03 03:27:43;;;;;;;2.70;1.50;;;;;;;10.20;100.00;100921.84;2091341;28;20274;-65
2023/12/03 03:28:44;;;;;;;3.33;1.50;;;;;;;9.83;100.00;100871.44;2093194;28;20567;-65
2023/12/03 03:29:44;;;;;;;2.17;1.37;;;;;;;10.17;100.00;100905.28;2096701;28;20627;-65
2023/12/03 03:30:45;;;;;;;2.03;1.20;;;;;;;9.84;100.00;100871.03;2094973;28;20629;-65
2023/12/03 03:31:45;;;;;;;2.93;1.73;;;;;;;10.09;100.00;100909.41;2089230;28;20183;-64
2023/12/03 03:32:46;;;;;;;2.50;1.33;;;;;;;10.13;100.00;100919.22;2097245;28;20184;-65
2023/12/03 03:33:46;;;;;;;2.50;1.20;;;;;;;10.04;100.00;100918.97;2089580;28;20202;-65
2023/12/03 03:34:47;;;;;;;3.77;1.67;;;;;;;10.05;100.00;100930.84;2094505;28;20278;-65
2023/12/03 03:35:47;;;;;;;2.73;1.53;;;;;;;10.05;100.00;100928.81;2092103;28;20187;-64
2023/12/03 03:36:47;;;;;;;1.67;1.40;;;;;;;9.84;100.00;100903.47;2092477;28;20203;-65
2023/12/03 03:37:48;;;;;;;3.63;1.77;;;;;;;9.98;100.00;100925.38;2097222;28;20203;-65
2023/12/03 03:38:50;;;;;;;3.00;1.47;;;;;;;10.02;100.00;100935.19;2097053;28;20182;-65
2023/12/03 03:39:50;;;;;;;3.00;1.80;;;;;;;9.94;100.00;100933.72;2097148;28;20237;-65
2023/12/03 03:40:51;;;;;;;2.60;1.70;;;;;;;9.95;100.00;100932.53;2096949;28;20456;-65
2023/12/03 03:41:51;;;;;;;2.77;1.70;;;;;;;9.50;100.00;100877.91;2096778;28;20190;-65
2023/12/03 03:42:52;;;;;;;2.60;1.60;;;;;;;9.88;100.00;100935.41;2091194;28;20580;-66
2023/12/03 03:43:52;;;;;;;2.70;1.70;;;;;;;9.83;100.00;100929.56;2088115;28;20199;-65
2023/12/03 03:44:53;;;;;;;3.37;2.10;;;;;;;9.75;100.00;100915.09;2091431;28;20210;-65
2023/12/03 03:45:54;;;;;;;3.70;1.80;;;;;;;9.81;100.00;100943.84;2095022;28;20172;-65
2023/12/03 03:46:55;;;;;;;2.87;1.60;;;;;;;9.79;100.00;100932.38;2089603;28;20497;-64
2023/12/03 03:47:55;;;;;;;3.80;1.73;;;;;;;9.43;100.00;100869.75;2097618;28;20263;-65
2023/12/03 03:48:56;;;;;;;3.20;1.93;;;;;;;9.56;100.00;100898.38;2090820;28;20198;-65
2023/12/03 03:49:56;;;;;;;3.07;2.10;;;;;;;9.65;100.00;100952.00;2090239;28;20220;-65
2023/12/03 03:50:57;;;;;;;3.77;2.20;;;;;;;9.46;100.00;100913.94;2090126;28;20245;-65
2023/12/03 03:51:57;;;;;;;4.20;2.27;;;;;;;9.45;100.00;100926.22;2090313;28;20184;-65
2023/12/03 03:52:58;;;;;;;2.70;1.80;;;;;;;9.26;100.00;100893.69;2093107;28;20231;-65
2023/12/03 03:53:58;;;;;;;4.00;2.33;;;;;;;9.50;100.00;100953.41;2098555;28;20251;-65
2023/12/03 03:54:59;;;;;;;3.80;2.17;;;;;;;9.53;100.00;100960.09;2097963;28;20217;-64
2023/12/03 03:56:04;;;;;;;3.20;1.60;;;;;;;9.42;100.00;100965.75;2090599;28;20186;-65
2023/12/03 03:57:05;;;;;;;3.30;2.10;;;;;;;9.36;100.00;100972.16;2106511;28;20189;-65
2023/12/03 03:58:05;;;;;;;3.27;2.23;;;;;;;8.80;100.00;100890.75;2092901;28;20614;-64
2023/12/03 03:59:06;;;;;;;3.63;1.90;;;;;;;9.32;100.00;100988.81;2101282;28;20192;-65
2023/12/03 04:00:07;;;;;;;6.00;2.27;;;;;;;9.14;100.00;100941.25;2098551;28;20210;-65
2023/12/03 04:01:09;;;;;;;3.70;2.17;;;;;;;9.18;100.00;100950.28;2095734;28;20230;-65
2023/12/03 04:02:09;;;;;;;4.97;2.10;;;;;;;8.39;100.00;100828.50;2103088;28;20252;-65
2023/12/03 04:03:10;;;;;;;2.33;1.70;;;;;;;8.73;100.00;100899.13;2090646;28;20474;-65
2023/12/03 04:04:11;;;;;;;4.13;2.43;;;;;;;9.28;100.00;100996.38;2098137;28;20230;-64
2023/12/03 04:05:12;;;;;;;3.33;2.00;;;;;;;9.31;100.00;100997.50;2098630;28;20260;-65
2023/12/03 04:06:12;;;;;;;3.23;1.90;;;;;;;9.20;100.00;100983.03;2098462;28;20452;-64
2023/12/03 04:07:13;;;;;;;4.37;2.33;;;;;;;9.30;100.00;100987.66;2098437;28;20226;-64
2023/12/03 04:08:13;;;;;;;4.93;2.20;;;;;;;9.28;100.00;100990.06;2098522;28;20570;-64
2023/12/03 04:09:14;;;;;;;3.13;1.93;;;;;;;9.23;100.00;101005.13;2095879;28;20606;-65
2023/12/03 04:10:14;;;;;;;4.33;2.60;;;;;;;9.25;100.00;100996.41;2093279;28;20321;-64
2023/12/03 04:11:15;;;;;;;4.13;2.30;;;;;;;8.55;100.00;100889.47;2106064;28;20685;-65
2023/12/03 04:12:15;;;;;;;5.77;2.40;;;;;;;9.03;100.00;100967.47;2090283;28;20185;-65
2023/12/03 04:13:16;;;;;;;3.13;2.10;;;;;;;9.30;100.00;100998.72;2104589;28;20235;-64
2023/12/03 04:14:18;;;;;;;3.50;2.33;;;;;;;9.33;100.00;101006.19;2094575;28;20205;-65
2023/12/03 04:15:18;;;;;;;4.57;2.93;;;;;;;9.30;100.00;101013.34;2099865;28;20207;-65
2023/12/03 04:16:22;;;;;;;3.67;2.57;;;;;;;9.06;100.00;100981.25;2099882;28;20449;-65
2023/12/03 04:17:22;;;;;;;3.53;2.30;;;;;;;9.02;100.00;100979.72;2093736;28;20237;-65
2023/12/03 04:18:24;;;;;;;4.93;2.87;;;;;;;9.08;100.00;101000.19;2096967;28;20566;-64
2023/12/03 04:19:25;;;;;;;4.63;3.10;;;;;;;9.10;100.00;100995.00;2091491;28;20651;-64
2023/12/03 04:20:25;;;;;;;4.63;2.93;;;;;;;9.10;100.00;101001.34;2106798;28;20416;-65
2023/12/03 04:21:26;;;;;;;5.47;2.97;;;;;;;9.08;100.00;101003.72;2091799;28;20242;-65
2023/12/03 04:22:26;;;;;;;4.50;3.10;;;;;;;8.30;100.00;100888.97;2102302;28;20190;-65
2023/12/03 04:23:27;;;;;;;4.30;2.93;;;;;;;9.00;100.00;101002.25;2097007;28;20195;-64
2023/12/03 04:24:27;;;;;;;4.30;2.60;;;;;;;8.63;100.00;100955.28;2089691;28;20222;-65
2023/12/03 04:25:28;;;;;;;5.67;3.17;;;;;;;8.99;100.00;101008.19;2090102;28;20170;-65
2023/12/03 04:26:29;;;;;;;4.00;2.30;;;;;;;8.97;100.00;101008.59;2089579;28;20192;-65
2023/12/03 04:27:29;;;;;;;6.27;2.93;;;;;;;8.92;100.00;101008.28;2090108;28;20234;-65
2023/12/03 04:28:30;;;;;;;5.00;3.20;;;;;;;8.83;100.00;101005.19;2098144;28;20243;-65
2023/12/03 04:29:30;;;;;;;6.27;3.00;;;;;;;8.75;100.00;101000.94;2091639;28;20193;-65
2023/12/03 04:30:31;;;;;;;4.23;2.47;;;;;;;8.89;100.00;101020.94;2095292;28;20278;-65
2023/12/03 04:31:31;;;;;;;3.60;2.47;;;;;;;8.90;100.00;101018.94;2094230;28;20199;-65
2023/12/03 04:32:33;;;;;;;4.50;3.03;;;;;;;8.88;100.00;101022.13;2089995;28;20262;-66
2023/12/03 04:33:33;;;;;;;5.40;3.47;;;;;;;8.45;100.00;100951.16;2090044;28;20497;-65
2023/12/03 04:34:34;;;;;;;6.40;3.27;;;;;;;8.55;100.00;100975.09;2089440;28;20195;-65
2023/12/03 04:35:34;;;;;;;4.60;3.03;;;;;;;8.85;100.00;101020.19;2090239;28;20214;-65
2023/12/03 04:36:35;;;;;;;5.20;3.00;;;;;;;8.91;100.00;101026.06;2090021;28;20193;-64
2023/12/03 04:37:35;;;;;;;7.17;3.43;;;;;;;8.92;100.00;101030.38;2096374;28;20451;-65
2023/12/03 04:38:36;;;;;;;6.90;3.10;;;;;;;8.62;100.00;100980.56;2095418;28;20195;-65